Time,TemperatureF,DewpointF,PressureIn,WindDirection,WindDirectionDegrees,WindSpeedMPH,WindSpeedGustMPH,Humidity,HourlyPrecipIn,Conditions,Clouds,dailyrainin,SoftwareType,DateUTC
2013-06-27 00:15:00,80.2,72.0,28.48,South,189,0.0,1.0,76,0.00,00:15,,0.00,WeatherDisplay:WD co,2013-06-26 21:15:00,
2013-06-27 01:25:00,79.7,70.7,28.47,NW,308,0.0,1.0,74,0.00,01:25,,0.00,WeatherDisplay:WD co,2013-06-26 22:25:00,
2013-06-27 02:50:00,78.8,68.2,28.47,SSW,193,0.0,0.0,70,0.00,02:50,,0.00,WeatherDisplay:WD co,2013-06-26 23:50:00,
2013-06-27 03:35:00,78.3,68.5,28.46,South,180,0.0,0.0,72,0.00,03:35,,0.00,WeatherDisplay:WD co,2013-06-27 00:35:00,
2013-06-27 04:55:00,77.9,68.1,28.46,SSW,207,0.0,0.0,72,0.00,04:55,,0.00,WeatherDisplay:WD co,2013-06-27 01:55:00,
2013-06-27 05:35:00,77.5,67.8,28.47,East,98,0.0,1.0,72,0.00,05:35,,0.00,WeatherDisplay:WD co,2013-06-27 02:35:00,
2013-06-27 05:40:00,77.5,67.8,28.47,WNW,292,0.0,1.0,72,0.00,05:40,,0.00,WeatherDisplay:WD co,2013-06-27 02:40:00,
2013-06-27 06:30:00,77.0,67.7,28.47,WNW,292,0.0,1.0,73,0.00,06:30,,0.00,WeatherDisplay:WD co,2013-06-27 03:30:00,
2013-06-27 06:50:00,77.4,68.0,28.47,SSE,157,0.0,1.0,73,0.00,06:50,,0.00,WeatherDisplay:WD co,2013-06-27 03:50:00,
2013-06-27 08:20:00,85.5,70.5,28.49,SW,216,0.0,1.0,61,0.00,08:20,,0.00,WeatherDisplay:WD co,2013-06-27 05:20:00,
2013-06-27 09:30:00,88.7,69.9,28.50,SW,222,0.0,1.0,54,0.00,09:30,,0.00,WeatherDisplay:WD co,2013-06-27 06:30:00,
2013-06-27 10:20:00,87.3,68.6,28.49,WSW,255,3.0,6.0,54,0.00,10:20,,0.00,WeatherDisplay:WD co,2013-06-27 07:20:00,
2013-06-27 10:45:00,87.6,67.8,28.49,WNW,301,3.0,8.0,52,0.00,10:45,,0.00,WeatherDisplay:WD co,2013-06-27 07:45:00,
2013-06-27 11:35:00,90.0,67.6,28.49,NW,307,1.0,4.0,48,0.00,11:35,,0.00,WeatherDisplay:WD co,2013-06-27 08:35:00,
2013-06-27 14:15:00,89.4,71.1,28.47,NNE,25,8.0,14.0,55,0.00,14:15,,0.00,WeatherDisplay:WD co,2013-06-27 11:15:00,
2013-06-27 14:20:00,88.7,71.0,28.47,ENE,60,7.0,16.0,56,0.00,14:20,,0.00,WeatherDisplay:WD co,2013-06-27 11:20:00,
2013-06-27 17:00:00,85.6,70.6,28.45,East,82,6.0,15.0,61,0.00,17:00,,0.00,WeatherDisplay:WD co,2013-06-27 14:00:00,
2013-06-27 20:30:00,82.9,69.5,28.47,East,85,0.0,2.0,64,0.00,20:30,,0.00,WeatherDisplay:WD co,2013-06-27 17:30:00,
2013-06-27 21:25:00,81.7,68.8,28.48,SW,232,1.0,6.0,65,0.00,21:25,,0.00,WeatherDisplay:WD co,2013-06-27 18:25:00,
2013-06-27 21:30:00,81.7,69.2,28.48,WSW,244,3.0,7.0,66,0.00,21:30,,0.00,WeatherDisplay:WD co,2013-06-27 18:30:00,
2013-06-27 22:10:00,81.0,69.0,28.49,WSW,247,0.0,4.0,67,0.00,22:10,,0.00,WeatherDisplay:WD co,2013-06-27 19:10:00,
2013-06-27 23:45:00,78.4,71.4,28.50,SW,227,3.0,6.0,79,0.00,23:45,,0.00,WeatherDisplay:WD co,2013-06-27 20:45:00,